< < Back
Terminal Aerodrome Forecast


Current Version              Previous Versions:   1  2  3  4  5  6  7  8  9  

Terminal Aerodrome Forecast

685
FTUS42 KJAX 251100
TAFJAX
TAF
KJAX 251120Z 2512/2612 24004KT P6SM FEW040 SCT250
     FM251300 26008KT P6SM FEW020 SCT250
     FM251700 24006KT P6SM VCTS SCT040CB BKN100 BKN250
     FM260100 23006KT P6SM SCT040 SCT100 BKN250=

Latest METAR

967
SAUS80 KWBC 251700
MTRJAX
METAR KJAX 251656Z VRB05KT 10SM SCT039 31/23 A3004 RMK AO2 SLP173 CB
DSNT S AND SW T03110228 $


USA.gov is the U.S. government's official web portal to all federal, state and local government web resources and services.